Time;durP1;ratioP1;P1;durP2;ratioP2;P2;SDS_P1;SDS_P2;PMS_P1;PMS_P2;Temp;Humidity;BMP_temperature;BMP_pressure;BME280_temperature;BME280_humidity;BME280_pressure;Samples;Min_cycle;Max_cycle;Signal;HPM_P1;HPM_P2
2022/12/29 00:01:27;;;;;;;;;;;11.60;99.90;;;;;;5012481;28;19925;-76
2022/12/29 00:03:53;;;;;;;;;;;11.60;99.90;;;;;;5002530;28;19960;-77
2022/12/29 00:06:21;;;;;;;;;;;11.60;99.90;;;;;;5005900;28;19929;-75
2022/12/29 00:08:50;;;;;;;;;;;11.60;99.90;;;;;;4995563;28;19940;-75
2022/12/29 00:11:18;;;;;;;;;;;11.50;99.90;;;;;;5004652;28;19930;-75
2022/12/29 00:16:30;;;;;;;;;;;11.40;99.90;;;;;;5538909;22;21385;-76
2022/12/29 00:18:57;;;;;;;;;;;11.50;99.90;;;;;;5047443;28;19928;-76
2022/12/29 00:35:13;;;;;;;;;;;12.40;99.90;;;;;;5006740;28;19933;-73
2022/12/29 00:45:56;;;;;;;;;;;11.70;99.90;;;;;;4993864;28;20013;-74
2022/12/29 00:51:03;;;;;;;;;;;11.60;99.90;;;;;;4990826;28;19936;-78
2022/12/29 00:53:30;;;;;;;;;;;11.50;99.90;;;;;;4991083;28;19946;-76
2022/12/29 00:55:58;;;;;;;;;;;11.40;99.90;;;;;;4994881;28;20437;-76
2022/12/29 00:58:27;;;;;;;;;;;11.30;99.90;;;;;;4991483;28;19973;-75
2022/12/29 01:01:01;;;;;;;;;;;11.30;99.90;;;;;;4990507;28;19933;-78
2022/12/29 01:03:27;;;;;;;;;;;11.30;99.90;;;;;;4989880;28;20378;-76
2022/12/29 01:05:54;;;;;;;;;;;10.90;99.90;;;;;;4991454;28;19930;-75
2022/12/29 01:08:21;;;;;;;;;;;11.30;99.90;;;;;;4998758;28;20150;-75
2022/12/29 01:10:58;;;;;;;;;;;11.30;99.90;;;;;;4992367;28;20017;-75
2022/12/29 01:13:25;;;;;;;;;;;11.40;99.90;;;;;;4983386;28;20403;-76
2022/12/29 01:15:52;;;;;;;;;;;11.50;99.90;;;;;;4992259;28;19940;-80
2022/12/29 01:18:19;;;;;;;;;;;11.50;99.90;;;;;;5010187;28;20024;-77
2022/12/29 01:20:46;;;;;;;;;;;11.60;99.90;;;;;;4991698;28;19956;-76
2022/12/29 01:23:13;;;;;;;;;;;11.70;99.90;;;;;;5002657;28;20021;-76
2022/12/29 01:25:39;;;;;;;;;;;11.80;99.90;;;;;;4989712;28;19930;-75
2022/12/29 01:28:08;;;;;;;;;;;11.90;99.90;;;;;;4994485;28;19926;-77
2022/12/29 01:30:35;;;;;;;;;;;13.10;99.90;;;;;;4990827;28;20319;-74
2022/12/29 01:33:02;;;;;;;;;;;12.00;99.90;;;;;;4987787;28;20379;-75
2022/12/29 01:35:28;;;;;;;;;;;12.00;99.90;;;;;;4986318;28;19934;-76
2022/12/29 01:37:58;;;;;;;;;;;12.10;99.90;;;;;;5001193;28;19929;-74
2022/12/29 01:40:25;;;;;;;;;;;12.10;99.90;;;;;;4994490;28;20260;-75
2022/12/29 01:42:52;;;;;;;;;;;12.10;99.90;;;;;;4992599;28;19929;-76
2022/12/29 01:45:20;;;;;;;;;;;12.10;99.90;;;;;;4994818;28;20398;-74
2022/12/29 01:47:48;;;;;;;;;;;12.10;99.90;;;;;;4990116;28;19930;-74
2022/12/29 01:50:18;;;;;;;;;;;12.20;99.90;;;;;;4994957;28;19950;-78
2022/12/29 01:52:48;;;;;;;;;;;12.20;99.90;;;;;;4996097;28;20318;-75
2022/12/29 01:55:15;;;;;;;;;;;12.20;99.90;;;;;;4988106;28;19929;-79
2022/12/29 01:57:47;;;;;;;;;;;12.20;99.90;;;;;;4996283;28;19933;-77
2022/12/29 02:00:15;;;;;;;;;;;12.20;99.90;;;;;;4994229;28;20450;-75
2022/12/29 02:02:44;;;;;;;;;;;12.30;99.90;;;;;;4994962;28;20020;-78
2022/12/29 02:05:12;;;;;;;;;;;12.30;99.90;;;;;;4996153;28;20343;-75
2022/12/29 02:07:39;;;;;;;;;;;12.20;99.90;;;;;;4992422;28;19932;-75
2022/12/29 02:10:06;;;;;;;;;;;11.80;99.90;;;;;;4993568;28;19930;-77
2022/12/29 02:12:33;;;;;;;;;;;12.20;99.90;;;;;;4990169;28;19926;-75
2022/12/29 02:15:01;;;;;;;;;;;12.20;99.90;;;;;;4990965;28;19930;-79
2022/12/29 02:17:33;;;;;;;;;;;12.20;99.90;;;;;;4995954;28;19930;-75
2022/12/29 02:20:10;;;;;;;;;;;13.70;99.90;;;;;;4988917;28;19977;-77
2022/12/29 02:22:42;;;;;;;;;;;12.20;99.90;;;;;;4989936;28;19933;-76
2022/12/29 02:25:27;;;;;;;;;;;12.30;99.90;;;;;;4995135;28;19961;-74
2022/12/29 02:28:16;;;;;;;;;;;12.30;99.90;;;;;;4986261;28;20387;-77
2022/12/29 02:30:47;;;;;;;;;;;12.30;99.90;;;;;;4998870;28;19932;-75
2022/12/29 02:33:19;;;;;;;;;;;12.30;99.90;;;;;;4984680;28;19925;-75
2022/12/29 02:35:50;;;;;;;;;;;12.30;99.90;;;;;;4989715;28;20024;-77
2022/12/29 02:38:22;;;;;;;;;;;12.30;99.90;;;;;;4986984;28;19929;-77
2022/12/29 02:40:51;;;;;;;;;;;13.10;99.90;;;;;;4995052;28;19930;-77
2022/12/29 02:43:23;;;;;;;;;;;12.30;99.90;;;;;;5007946;28;19927;-74
2022/12/29 02:45:54;;;;;;;;;;;12.20;99.90;;;;;;4985728;28;19945;-73
2022/12/29 02:48:24;;;;;;;;;;;12.20;99.90;;;;;;4982136;28;20024;-76
2022/12/29 02:50:53;;;;;;;;;;;12.10;99.90;;;;;;4988026;28;20347;-76
2022/12/29 02:54:40;;;;;;;;;;;12.10;99.90;;;;;;4998611;28;20015;-74
2022/12/29 02:56:07;;;;;;;;;;;12.10;99.90;;;;;;4993826;28;19996;-74
2022/12/29 02:58:34;;;;;;;;;;;12.20;99.90;;;;;;4997639;28;19956;-74
2022/12/29 03:01:12;;;;;;;;;;;12.20;99.90;;;;;;4992466;28;19936;-77
2022/12/29 03:03:46;;;;;;;;;;;12.20;99.90;;;;;;4990155;28;20391;-75
2022/12/29 03:06:23;;;;;;;;;;;13.10;99.90;;;;;;4995777;28;19945;-75
2022/12/29 03:08:54;;;;;;;;;;;12.30;99.90;;;;;;4991770;28;19926;-74
2022/12/29 03:17:02;;;;;;;;;;;12.30;99.90;;;;;;5003282;28;19926;-76
2022/12/29 03:19:31;;;;;;;;;;;12.30;99.90;;;;;;4986627;28;19929;-75
2022/12/29 03:24:55;;;;;;;;;;;12.30;99.90;;;;;;4986112;28;19930;-77
2022/12/29 03:27:25;;;;;;;;;;;12.30;99.90;;;;;;4989426;28;19937;-74
2022/12/29 03:29:55;;;;;;;;;;;12.30;99.90;;;;;;4990906;28;19960;-80
2022/12/29 03:32:25;;;;;;;;;;;12.40;99.90;;;;;;4983108;28;19940;-75
2022/12/29 03:34:53;;;;;;;;;;;13.60;99.90;;;;;;4990851;28;19933;-76
2022/12/29 03:37:23;;;;;;;;;;;12.40;99.90;;;;;;4982531;28;20430;-75
2022/12/29 03:39:49;;;;;;;;;;;13.20;99.90;;;;;;4987472;28;19936;-77
2022/12/29 03:42:17;;;;;;;;;;;12.40;99.90;;;;;;4992371;28;20278;-74
2022/12/29 03:44:45;;;;;;;;;;;12.40;99.90;;;;;;4983259;28;20380;-75
2022/12/29 03:47:14;;;;;;;;;;;12.40;99.90;;;;;;4984024;28;19936;-75
2022/12/29 03:49:43;;;;;;;;;;;12.40;99.90;;;;;;4993433;28;19929;-76
2022/12/29 03:52:12;;;;;;;;;;;12.40;99.90;;;;;;4991848;28;20363;-75
2022/12/29 03:54:43;;;;;;;;;;;12.40;99.90;;;;;;4993738;28;20398;-75
2022/12/29 03:57:10;;;;;;;;;;;12.40;99.90;;;;;;4996748;28;19929;-76
2022/12/29 03:59:47;;;;;;;;;;;12.40;99.90;;;;;;4992830;28;20788;-75
2022/12/29 04:02:13;;;;;;;;;;;13.20;99.90;;;;;;4992845;28;20067;-75
2022/12/29 04:04:41;;;;;;;;;;;12.40;99.90;;;;;;4987169;28;19961;-75
2022/12/29 04:07:09;;;;;;;;;;;12.40;99.90;;;;;;4995473;28;19940;-77
2022/12/29 04:09:36;;;;;;;;;;;12.50;99.90;;;;;;4995954;28;19980;-76
2022/12/29 04:12:03;;;;;;;;;;;12.40;99.90;;;;;;4991667;28;19925;-75
2022/12/29 04:14:30;;;;;;;;;;;12.40;99.90;;;;;;4987604;28;20161;-76
2022/12/29 04:16:57;;;;;;;;;;;12.40;99.90;;;;;;4981863;28;20028;-74
2022/12/29 04:19:24;;;;;;;;;;;12.40;99.90;;;;;;4982283;28;20014;-77
2022/12/29 04:21:51;;;;;;;;;;;12.70;99.90;;;;;;4984917;28;20020;-76
2022/12/29 04:24:19;;;;;;;;;;;12.40;99.90;;;;;;4989908;28;19933;-76
2022/12/29 04:26:49;;;;;;;;;;;12.40;99.90;;;;;;4985185;28;19926;-78
2022/12/29 04:29:36;;;;;;;;;;;12.20;99.90;;;;;;4977953;28;20400;-76
2022/12/29 04:32:09;;;;;;;;;;;12.40;99.90;;;;;;4989282;28;19929;-76
2022/12/29 04:34:41;;;;;;;;;;;12.50;99.90;;;;;;4991761;28;19956;-75
2022/12/29 04:37:08;;;;;;;;;;;12.40;99.90;;;;;;4984793;28;19957;-77
2022/12/29 04:39:36;;;;;;;;;;;12.50;99.90;;;;;;4986986;28;19969;-75
2022/12/29 04:42:04;;;;;;;;;;;12.50;99.90;;;;;;4986459;28;19973;-75
2022/12/29 04:44:32;;;;;;;;;;;12.50;99.90;;;;;;4980465;28;19934;-76
2022/12/29 04:46:59;;;;;;;;;;;12.50;99.90;;;;;;4986576;28;20349;-75
2022/12/29 04:49:44;;;;;;;;;;;12.50;99.90;;;;;;4993025;28;19961;-76
2022/12/29 04:52:31;;;;;;;;;;;12.50;99.90;;;;;;4992518;28;19980;-76
2022/12/29 04:54:59;;;;;;;;;;;12.50;99.90;;;;;;4992883;28;19937;-75
2022/12/29 04:57:26;;;;;;;;;;;12.50;99.90;;;;;;4996704;28;19925;-77
2022/12/29 04:59:56;;;;;;;;;;;12.50;99.90;;;;;;4988847;28;20017;-75
2022/12/29 05:02:23;;;;;;;;;;;12.50;99.90;;;;;;4975937;28;20260;-75
2022/12/29 05:04:51;;;;;;;;;;;13.60;99.90;;;;;;4986360;28;20319;-76
2022/12/29 05:07:18;;;;;;;;;;;12.50;99.90;;;;;;4981695;28;20349;-77
2022/12/29 05:09:45;;;;;;;;;;;11.90;99.90;;;;;;4978937;28;19937;-76
2022/12/29 05:12:14;;;;;;;;;;;12.50;99.90;;;;;;4988006;28;20024;-74
2022/12/29 05:14:50;;;;;;;;;;;12.50;99.90;;;;;;4986595;28;19930;-77
2022/12/29 05:17:17;;;;;;;;;;;13.70;99.90;;;;;;4998789;28;19930;-75
2022/12/29 05:19:44;;;;;;;;;;;12.50;99.90;;;;;;4993056;28;19980;-77
2022/12/29 05:22:10;;;;;;;;;;;12.50;99.90;;;;;;4993539;28;20028;-76
2022/12/29 05:24:38;;;;;;;;;;;12.60;99.90;;;;;;4987735;28;19934;-75
2022/12/29 05:27:05;;;;;;;;;;;12.40;99.90;;;;;;4996669;28;19934;-78
2022/12/29 05:29:49;;;;;;;;;;;12.40;99.90;;;;;;4999294;28;19929;-77
2022/12/29 05:32:15;;;;;;;;;;;12.80;99.90;;;;;;4996928;28;19997;-77
2022/12/29 05:34:43;;;;;;;;;;;12.50;99.90;;;;;;4994040;28;20040;-73
2022/12/29 05:37:10;;;;;;;;;;;12.50;99.90;;;;;;5002639;28;19930;-77
2022/12/29 05:39:38;;;;;;;;;;;13.70;99.90;;;;;;4990883;28;19926;-75
2022/12/29 05:42:06;;;;;;;;;;;13.80;99.90;;;;;;4992756;28;19936;-76
2022/12/29 05:44:51;;;;;;;;;;;13.90;99.90;;;;;;4996067;28;19933;-76
2022/12/29 05:47:25;;;;;;;;;;;12.30;99.90;;;;;;4988599;28;19936;-75
2022/12/29 05:50:10;;;;;;;;;;;12.20;99.90;;;;;;4990152;28;19936;-75
2022/12/29 05:52:55;;;;;;;;;;;12.10;99.90;;;;;;4991421;28;19991;-75
2022/12/29 05:55:22;;;;;;;;;;;12.00;99.90;;;;;;4991549;28;19976;-76
2022/12/29 05:57:51;;;;;;;;;;;12.00;99.90;;;;;;4991942;28;19936;-76
2022/12/29 06:00:20;;;;;;;;;;;11.90;99.90;;;;;;4993207;28;20281;-75
2022/12/29 06:02:47;;;;;;;;;;;11.80;99.90;;;;;;4983987;28;19930;-73
2022/12/29 06:05:15;;;;;;;;;;;11.50;99.90;;;;;;4997836;28;20029;-73
2022/12/29 06:07:42;;;;;;;;;;;11.70;99.90;;;;;;4989367;28;19930;-76
2022/12/29 06:10:09;;;;;;;;;;;11.60;99.90;;;;;;4994257;28;20309;-77
2022/12/29 06:12:54;;;;;;;;;;;11.50;99.90;;;;;;4996035;28;20309;-75
2022/12/29 06:15:22;;;;;;;;;;;11.50;99.90;;;;;;4990367;28;19929;-76
2022/12/29 06:17:50;;;;;;;;;;;11.40;99.90;;;;;;4993825;28;19976;-78
2022/12/29 06:20:18;;;;;;;;;;;11.30;99.90;;;;;;4998454;28;19925;-76
2022/12/29 06:22:46;;;;;;;;;;;11.30;99.90;;;;;;4995234;28;19929;-76
2022/12/29 06:25:13;;;;;;;;;;;11.20;99.90;;;;;;4997616;28;19930;-75
2022/12/29 06:27:42;;;;;;;;;;;11.20;99.90;;;;;;4994698;28;20324;-74
2022/12/29 06:30:09;;;;;;;;;;;11.20;99.90;;;;;;4987518;28;19934;-76
2022/12/29 06:32:39;;;;;;;;;;;11.30;99.90;;;;;;4988686;28;19933;-75
2022/12/29 06:35:09;;;;;;;;;;;11.40;99.90;;;;;;4987934;28;19968;-76
2022/12/29 06:37:40;;;;;;;;;;;11.50;99.90;;;;;;4982879;28;20399;-76
2022/12/29 06:40:08;;;;;;;;;;;11.50;99.90;;;;;;4979278;28;19930;-75
2022/12/29 06:43:13;;;;;;;;;;;11.60;99.90;;;;;;4978381;28;19929;-76
2022/12/29 06:45:40;;;;;;;;;;;11.70;99.90;;;;;;4986705;28;19929;-74
2022/12/29 06:48:08;;;;;;;;;;;11.80;99.90;;;;;;4995663;28;19968;-75
2022/12/29 06:50:35;;;;;;;;;;;11.90;99.90;;;;;;4984845;28;19952;-75
2022/12/29 06:53:02;;;;;;;;;;;11.90;99.90;;;;;;4995066;28;19926;-74
2022/12/29 06:55:28;;;;;;;;;;;11.90;99.90;;;;;;4997088;28;19926;-74
2022/12/29 06:57:55;;;;;;;;;;;11.90;99.90;;;;;;4996377;28;19942;-76
2022/12/29 07:00:22;;;;;;;;;;;11.90;99.90;;;;;;4989308;28;19925;-75
2022/12/29 07:02:49;;;;;;;;;;;11.90;99.90;;;;;;4979703;28;19941;-75
2022/12/29 07:05:17;;;;;;;;;;;11.90;99.90;;;;;;4987559;28;19930;-74
2022/12/29 07:07:44;;;;;;;;;;;11.90;99.90;;;;;;4989694;28;20295;-76
2022/12/29 07:10:10;;;;;;;;;;;11.90;99.90;;;;;;4993862;28;19945;-75
2022/12/29 07:12:37;;;;;;;;;;;12.00;99.90;;;;;;4990201;28;19940;-77
2022/12/29 07:15:04;;;;;;;;;;;13.30;99.90;;;;;;4992119;28;20347;-75
2022/12/29 07:17:31;;;;;;;;;;;12.00;99.90;;;;;;4992939;28;20407;-74
2022/12/29 07:19:57;;;;;;;;;;;12.00;99.90;;;;;;4999261;28;19946;-78
2022/12/29 07:22:25;;;;;;;;;;;11.40;99.90;;;;;;4991007;28;19930;-75
2022/12/29 07:24:52;;;;;;;;;;;12.00;99.90;;;;;;5006360;28;19933;-77
2022/12/29 07:27:19;;;;;;;;;;;13.40;99.90;;;;;;5006457;28;19925;-73
2022/12/29 07:29:45;;;;;;;;;;;12.00;99.90;;;;;;4992506;28;20102;-77
2022/12/29 07:32:12;;;;;;;;;;;12.00;99.90;;;;;;4928018;28;1784735;-75
2022/12/29 07:34:39;;;;;;;;;;;12.10;99.90;;;;;;4989661;28;19936;-75
2022/12/29 07:37:06;;;;;;;;;;;12.00;99.90;;;;;;4996687;28;19980;-76
2022/12/29 07:39:34;;;;;;;;;;;12.00;99.90;;;;;;4994047;28;19930;-76
2022/12/29 07:42:01;;;;;;;;;;;12.00;99.90;;;;;;4994756;28;20406;-74
2022/12/29 07:44:37;;;;;;;;;;;12.00;99.90;;;;;;4992081;28;20360;-74
2022/12/29 07:47:16;;;;;;;;;;;12.00;99.90;;;;;;4982541;28;19960;-74
2022/12/29 07:49:43;;;;;;;;;;;11.80;99.90;;;;;;4999278;28;19932;-74
2022/12/29 07:52:10;;;;;;;;;;;13.20;99.90;;;;;;4989353;28;19938;-74
2022/12/29 07:54:38;;;;;;;;;;;11.90;99.90;;;;;;4997418;28;20298;-74
2022/12/29 07:57:05;;;;;;;;;;;12.00;99.90;;;;;;4996356;28;19930;-79
2022/12/29 07:59:32;;;;;;;;;;;12.00;99.90;;;;;;4997235;28;19965;-75
2022/12/29 08:01:59;;;;;;;;;;;12.00;99.90;;;;;;4987895;28;20305;-74
2022/12/29 08:04:25;;;;;;;;;;;12.00;99.90;;;;;;4991828;28;19925;-75
2022/12/29 08:06:52;;;;;;;;;;;12.70;99.90;;;;;;4991581;28;19929;-75
2022/12/29 08:09:19;;;;;;;;;;;13.30;99.90;;;;;;4991926;28;19926;-75
2022/12/29 08:11:48;;;;;;;;;;;12.00;99.90;;;;;;4988204;28;19929;-76
2022/12/29 08:14:15;;;;;;;;;;;11.40;99.90;;;;;;4998531;28;20420;-76
2022/12/29 08:16:41;;;;;;;;;;;12.00;99.90;;;;;;4990021;28;19930;-74
2022/12/29 08:19:10;;;;;;;;;;;11.90;99.90;;;;;;4984696;28;20885;-77
2022/12/29 08:21:37;;;;;;;;;;;11.90;99.90;;;;;;5024558;23;19929;-79
2022/12/29 08:24:04;;;;;;;;;;;11.90;99.90;;;;;;5049222;28;20522;-80
2022/12/29 08:26:31;;;;;;;;;;;10.70;99.90;;;;;;5037987;28;20315;-79
2022/12/29 08:28:59;;;;;;;;;;;11.90;99.90;;;;;;5055673;28;19970;-80
2022/12/29 08:31:26;;;;;;;;;;;11.90;99.90;;;;;;5059446;28;19932;-79
2022/12/29 08:33:52;;;;;;;;;;;12.00;99.90;;;;;;5058523;28;19939;-78
2022/12/29 08:36:19;;;;;;;;;;;12.00;99.90;;;;;;5046089;28;19928;-79
2022/12/29 08:38:46;;;;;;;;;;;12.00;99.90;;;;;;5047620;28;19935;-78
2022/12/29 08:41:13;;;;;;;;;;;12.00;99.90;;;;;;5052110;28;20367;-79
2022/12/29 08:43:41;;;;;;;;;;;12.00;99.90;;;;;;5050372;28;19925;-82
2022/12/29 08:46:09;;;;;;;;;;;12.00;99.90;;;;;;5057755;28;19960;-84
2022/12/29 08:48:35;;;;;;;;;;;12.10;99.90;;;;;;5065844;28;19929;-85
2022/12/29 08:51:02;;;;;;;;;;;12.00;99.90;;;;;;5067046;28;19932;-84
2022/12/29 08:53:29;;;;;;;;;;;12.00;99.90;;;;;;5054919;28;19936;-82
2022/12/29 08:55:57;;;;;;;;;;;11.90;99.90;;;;;;5075496;28;19942;-85
2022/12/29 08:58:24;;;;;;;;;;;11.90;99.90;;;;;;5049515;28;19925;-86
2022/12/29 09:00:52;;;;;;;;;;;11.80;99.90;;;;;;5066960;28;19928;-85
2022/12/29 09:03:21;;;;;;;;;;;11.60;99.90;;;;;;5052320;28;19955;-84
2022/12/29 09:05:48;;;;;;;;;;;11.50;99.90;;;;;;5055088;28;19956;-85
2022/12/29 09:08:15;;;;;;;;;;;11.50;99.90;;;;;;5059720;28;19936;-83
2022/12/29 09:10:42;;;;;;;;;;;11.50;99.90;;;;;;5051828;28;20312;-85
2022/12/29 09:13:09;;;;;;;;;;;11.60;99.90;;;;;;5062433;28;19925;-82
2022/12/29 09:15:36;;;;;;;;;;;11.80;99.90;;;;;;5051441;28;20386;-82
2022/12/29 09:18:02;;;;;;;;;;;11.90;99.90;;;;;;5072125;28;20011;-82
2022/12/29 09:20:31;;;;;;;;;;;12.10;99.90;;;;;;5061754;28;19928;-83
2022/12/29 09:22:58;;;;;;;;;;;12.20;99.90;;;;;;5064823;28;20401;-82
2022/12/29 09:25:25;;;;;;;;;;;12.30;99.90;;;;;;5055854;28;19924;-83
2022/12/29 09:27:53;;;;;;;;;;;12.00;99.90;;;;;;5053392;28;19929;-83
2022/12/29 09:30:20;;;;;;;;;;;12.30;99.90;;;;;;5064881;28;19939;-80
2022/12/29 09:32:47;;;;;;;;;;;12.30;99.90;;;;;;5068104;28;19929;-80
2022/12/29 09:35:14;;;;;;;;;;;12.30;99.90;;;;;;5066538;28;20334;-80
2022/12/29 09:37:43;;;;;;;;;;;12.20;99.90;;;;;;5065985;28;20344;-80
2022/12/29 09:40:18;;;;;;;;;;;12.20;99.90;;;;;;5056303;28;20425;-80
2022/12/29 09:42:46;;;;;;;;;;;12.20;99.90;;;;;;5043095;28;20682;-80
2022/12/29 09:45:14;;;;;;;;;;;12.20;99.90;;;;;;5047376;28;19929;-80
2022/12/29 09:47:42;;;;;;;;;;;12.20;99.90;;;;;;5065895;28;19925;-80
2022/12/29 09:50:16;;;;;;;;;;;12.20;99.90;;;;;;5061963;28;20019;-80
2022/12/29 09:52:48;;;;;;;;;;;12.30;99.90;;;;;;5057901;28;19928;-81
2022/12/29 09:55:15;;;;;;;;;;;12.30;99.90;;;;;;5052402;28;19929;-81
2022/12/29 09:57:45;;;;;;;;;;;12.30;99.90;;;;;;5057502;28;19935;-80
2022/12/29 10:00:16;;;;;;;;;;;12.30;99.90;;;;;;5060601;28;19935;-81
2022/12/29 10:02:44;;;;;;;;;;;12.30;99.90;;;;;;5067295;28;19940;-81
2022/12/29 10:05:16;;;;;;;;;;;12.30;99.90;;;;;;5066924;28;19932;-81
2022/12/29 10:07:47;;;;;;;;;;;12.30;99.90;;;;;;5067641;28;20381;-79
2022/12/29 10:10:21;;;;;;;;;;;12.30;99.90;;;;;;5068921;28;19929;-78
2022/12/29 10:12:54;;;;;;;;;;;12.30;99.90;;;;;;5069899;28;19928;-80
2022/12/29 10:15:35;;;;;;;;;;;12.30;99.90;;;;;;5058532;28;19924;-81
2022/12/29 10:18:05;;;;;;;;;;;12.30;99.90;;;;;;5066235;28;19925;-81
2022/12/29 10:20:32;;;;;;;;;;;12.30;99.90;;;;;;5061956;28;19925;-81
2022/12/29 10:23:13;;;;;;;;;;;12.30;99.90;;;;;;5060896;28;19928;-81
2022/12/29 10:25:41;;;;;;;;;;;12.40;99.90;;;;;;5058876;28;19929;-81
2022/12/29 10:28:16;;;;;;;;;;;12.40;99.90;;;;;;5070647;28;19929;-81
2022/12/29 10:30:44;;;;;;;;;;;12.40;99.90;;;;;;5059888;28;19990;-81
2022/12/29 10:33:13;;;;;;;;;;;12.50;99.90;;;;;;5049205;28;20002;-81
2022/12/29 10:35:42;;;;;;;;;;;12.50;99.90;;;;;;5056424;28;19924;-81
2022/12/29 10:38:15;;;;;;;;;;;12.60;99.90;;;;;;5040836;28;19928;-81
2022/12/29 10:40:44;;;;;;;;;;;12.60;99.90;;;;;;5056374;28;19925;-81
2022/12/29 10:43:21;;;;;;;;;;;12.60;99.90;;;;;;5061406;28;20321;-81
2022/12/29 10:45:48;;;;;;;;;;;12.60;99.90;;;;;;5081032;28;19924;-81
2022/12/29 10:48:20;;;;;;;;;;;12.60;99.90;;;;;;5090541;28;19912;-81
2022/12/29 10:50:49;;;;;;;;;;;12.60;99.90;;;;;;5079294;28;19923;-80
2022/12/29 10:53:20;;;;;;;;;;;12.60;99.90;;;;;;5086688;28;19913;-81
2022/12/29 10:55:47;;;;;;;;;;;12.60;99.90;;;;;;5067636;28;19924;-80
2022/12/29 10:58:14;;;;;;;;;;;12.60;99.90;;;;;;5070976;28;20084;-81
2022/12/29 11:00:42;;;;;;;;;;;12.60;99.90;;;;;;5076148;28;19913;-81
2022/12/29 11:03:22;;;;;;;;;;;12.70;99.90;;;;;;5076550;28;20019;-81
2022/12/29 11:05:53;;;;;;;;;;;12.70;99.90;;;;;;5072530;28;20444;-81
2022/12/29 11:08:23;;;;;;;;;;;12.70;99.90;;;;;;5063775;28;19928;-81
2022/12/29 11:10:58;;;;;;;;;;;12.80;99.90;;;;;;5060488;28;19936;-81
2022/12/29 11:13:25;;;;;;;;;;;12.80;99.90;;;;;;5042439;28;19937;-82
2022/12/29 11:15:52;;;;;;;;;;;12.80;99.90;;;;;;5068660;28;19935;-81
2022/12/29 11:18:20;;;;;;;;;;;12.80;99.90;;;;;;5045982;28;19929;-81
2022/12/29 11:20:47;;;;;;;;;;;12.80;99.90;;;;;;5059868;28;19925;-81
2022/12/29 11:23:26;;;;;;;;;;;12.80;99.90;;;;;;5062269;28;20402;-81
2022/12/29 11:26:23;;;;;;;;;;;12.80;99.90;;;;;;5060093;28;19925;-81
2022/12/29 11:29:04;;;;;;;;;;;12.80;99.90;;;;;;4977280;28;19973;-81
2022/12/29 11:31:31;;;;;;;;;;;12.80;99.90;;;;;;5055304;28;20246;-81
2022/12/29 11:33:58;;;;;;;;;;;12.90;99.90;;;;;;5066033;28;19951;-81
2022/12/29 11:36:25;;;;;;;;;;;13.00;99.90;;;;;;5050654;28;19934;-81
2022/12/29 11:38:54;;;;;;;;;;;13.00;99.90;;;;;;5066522;28;19951;-81
2022/12/29 11:41:23;;;;;;;;;;;13.10;99.90;;;;;;5063518;28;19925;-81
2022/12/29 11:43:50;;;;;;;;;;;13.10;99.90;;;;;;5066195;28;19928;-81
2022/12/29 11:46:19;;;;;;;;;;;13.10;99.90;;;;;;5061485;28;19940;-81
2022/12/29 11:48:46;;;;;;;;;;;13.10;99.90;;;;;;5055723;28;19931;-81
2022/12/29 11:51:21;;;;;;;;;;;13.10;99.90;;;;;;5037193;28;19932;-81
2022/12/29 11:53:51;;;;;;;;;;;13.10;99.90;;;;;;5040201;28;19932;-81
2022/12/29 11:56:34;;;;;;;;;;;13.10;99.90;;;;;;5043260;28;19935;-81
2022/12/29 11:59:16;;;;;;;;;;;13.10;99.90;;;;;;5058158;28;19931;-81
2022/12/29 12:01:43;;;;;;;;;;;13.10;99.90;;;;;;5039988;28;19928;-81
2022/12/29 12:04:14;;;;;;;;;;;13.10;99.90;;;;;;5060446;28;19935;-81
2022/12/29 12:06:45;;;;;;;;;;;13.10;99.90;;;;;;5057094;28;20440;-81
2022/12/29 12:09:17;;;;;;;;;;;13.20;99.90;;;;;;5061756;28;19991;-83
2022/12/29 12:11:45;;;;;;;;;;;13.20;99.90;;;;;;5054644;28;20440;-82
2022/12/29 12:14:13;;;;;;;;;;;13.20;99.90;;;;;;5047662;28;19929;-81
2022/12/29 12:17:10;;;;;;;;;;;13.10;99.90;;;;;;5057878;28;19960;-81
2022/12/29 12:19:39;;;;;;;;;;;13.10;99.90;;;;;;5056459;28;19928;-82
2022/12/29 12:22:11;;;;;;;;;;;13.00;99.90;;;;;;5063785;28;19924;-82
2022/12/29 12:24:40;;;;;;;;;;;13.00;99.90;;;;;;5041314;28;19925;-83
2022/12/29 12:27:13;;;;;;;;;;;13.10;99.90;;;;;;5056829;28;20065;-81
2022/12/29 12:29:44;;;;;;;;;;;13.00;99.90;;;;;;5061209;28;19932;-82
2022/12/29 12:32:15;;;;;;;;;;;13.00;99.90;;;;;;5073407;28;19955;-79
2022/12/29 12:34:43;;;;;;;;;;;12.90;99.90;;;;;;5047076;28;19928;-80
2022/12/29 12:37:23;;;;;;;;;;;12.90;99.90;;;;;;5050695;28;19921;-81
2022/12/29 12:40:09;;;;;;;;;;;12.90;99.90;;;;;;5076855;28;20000;-81
2022/12/29 12:42:43;;;;;;;;;;;12.90;99.90;;;;;;5077250;28;19912;-82
2022/12/29 12:45:26;;;;;;;;;;;12.80;99.90;;;;;;5061014;28;19917;-82
2022/12/29 12:47:59;;;;;;;;;;;12.80;99.90;;;;;;5082229;28;19912;-82
2022/12/29 12:50:36;;;;;;;;;;;12.80;99.90;;;;;;5057999;28;19929;-82
2022/12/29 12:53:15;;;;;;;;;;;12.90;99.90;;;;;;5052196;28;19920;-82
2022/12/29 12:56:00;;;;;;;;;;;12.90;99.90;;;;;;5069205;28;19924;-81
2022/12/29 12:58:32;;;;;;;;;;;12.90;99.90;;;;;;5072202;28;19929;-81
2022/12/29 13:01:06;;;;;;;;;;;12.80;99.90;;;;;;5076457;28;19935;-80
2022/12/29 13:03:40;;;;;;;;;;;12.80;99.90;;;;;;5072366;28;19924;-81
2022/12/29 13:06:19;;;;;;;;;;;12.80;99.90;;;;;;5074292;28;20274;-81
2022/12/29 13:08:56;;;;;;;;;;;12.80;99.90;;;;;;5054728;28;19939;-83
2022/12/29 13:11:26;;;;;;;;;;;12.80;99.90;;;;;;5064800;28;19952;-80
2022/12/29 13:14:04;;;;;;;;;;;12.80;99.90;;;;;;5057781;28;19940;-80
2022/12/29 13:16:35;;;;;;;;;;;12.80;99.90;;;;;;5058629;28;19928;-80
2022/12/29 13:19:05;;;;;;;;;;;12.80;99.90;;;;;;5060836;28;20018;-80
2022/12/29 13:21:39;;;;;;;;;;;12.80;99.90;;;;;;5051850;28;19928;-80
2022/12/29 13:24:11;;;;;;;;;;;12.80;99.90;;;;;;5055972;28;19939;-80
2022/12/29 13:26:41;;;;;;;;;;;12.80;99.90;;;;;;5038891;28;20319;-80
2022/12/29 13:29:17;;;;;;;;;;;12.80;99.90;;;;;;5053071;28;19932;-79
2022/12/29 13:31:50;;;;;;;;;;;12.70;99.90;;;;;;5034698;28;20033;-82
2022/12/29 13:34:25;;;;;;;;;;;12.70;99.90;;;;;;5054413;28;19940;-79
2022/12/29 13:36:54;;;;;;;;;;;12.60;99.90;;;;;;5054184;28;19950;-79
2022/12/29 13:39:22;;;;;;;;;;;12.60;99.90;;;;;;5060112;28;19940;-81
2022/12/29 13:41:51;;;;;;;;;;;12.60;99.90;;;;;;5067558;28;19933;-80
2022/12/29 13:44:22;;;;;;;;;;;12.50;99.90;;;;;;5070331;28;19939;-80
2022/12/29 13:46:50;;;;;;;;;;;12.50;99.90;;;;;;5073978;28;19932;-80
2022/12/29 13:49:18;;;;;;;;;;;12.50;99.90;;;;;;5053145;28;19939;-81
2022/12/29 13:51:48;;;;;;;;;;;12.50;99.90;;;;;;5048824;28;19982;-80
2022/12/29 13:54:19;;;;;;;;;;;12.50;99.90;;;;;;5072796;28;19959;-80
2022/12/29 13:56:49;;;;;;;;;;;12.50;99.90;;;;;;5073497;28;19939;-79
2022/12/29 13:59:22;;;;;;;;;;;12.50;99.90;;;;;;5072341;28;19936;-80
2022/12/29 14:01:55;;;;;;;;;;;12.40;99.90;;;;;;5075503;28;19958;-80
2022/12/29 14:04:23;;;;;;;;;;;12.30;99.90;;;;;;5077606;28;19928;-81
2022/12/29 14:06:59;;;;;;;;;;;12.30;99.90;;;;;;5060763;28;19939;-83
2022/12/29 14:09:41;;;;;;;;;;;12.30;99.90;;;;;;5088585;28;19913;-82
2022/12/29 14:12:20;;;;;;;;;;;12.30;99.90;;;;;;5085641;28;19923;-82
2022/12/29 14:14:48;;;;;;;;;;;12.20;99.90;;;;;;5063793;28;19925;-79
2022/12/29 14:17:19;;;;;;;;;;;12.10;99.90;;;;;;5081435;28;19924;-81
2022/12/29 14:19:47;;;;;;;;;;;12.10;99.90;;;;;;5080676;28;19928;-80
2022/12/29 14:22:14;;;;;;;;;;;12.00;99.90;;;;;;5063590;28;20240;-81
2022/12/29 14:24:43;;;;;;;;;;;12.10;99.90;;;;;;5061126;28;19939;-80
2022/12/29 14:27:35;;;;;;;;;;;12.10;99.90;;;;;;5039104;28;19933;-84
2022/12/29 14:30:04;;;;;;;;;;;12.10;99.90;;;;;;5023823;28;19933;-81
2022/12/29 14:32:38;;;;;;;;;;;12.10;99.90;;;;;;5058202;28;19934;-82
2022/12/29 14:35:31;;;;;;;;;;;12.10;99.90;;;;;;5061350;28;19932;-83
2022/12/29 14:38:06;;;;;;;;;;;12.10;99.90;;;;;;4983350;28;19934;-83
2022/12/29 14:40:34;;;;;;;;;;;12.10;99.90;;;;;;5062877;28;20279;-82
2022/12/29 14:43:01;;;;;;;;;;;12.10;99.90;;;;;;5061514;28;19929;-82
2022/12/29 14:45:30;;;;;;;;;;;12.10;99.90;;;;;;5045155;28;19955;-83
2022/12/29 14:47:57;;;;;;;;;;;12.10;99.90;;;;;;5050030;28;20062;-83
2022/12/29 14:50:25;;;;;;;;;;;12.00;99.90;;;;;;5066548;28;19932;-83
2022/12/29 14:52:53;;;;;;;;;;;12.00;99.90;;;;;;5052041;28;20011;-83
2022/12/29 14:55:31;;;;;;;;;;;11.90;99.90;;;;;;5075615;28;19960;-82
2022/12/29 14:58:00;;;;;;;;;;;11.90;99.90;;;;;;5053985;28;19932;-82
2022/12/29 15:00:31;;;;;;;;;;;11.90;99.90;;;;;;5071249;28;19964;-82
2022/12/29 15:03:03;;;;;;;;;;;11.80;99.90;;;;;;5065519;28;19952;-82
2022/12/29 15:05:35;;;;;;;;;;;11.80;99.90;;;;;;5046908;28;19928;-82
2022/12/29 15:08:03;;;;;;;;;;;11.80;99.90;;;;;;5065513;28;19928;-82
2022/12/29 15:10:35;;;;;;;;;;;11.70;99.90;;;;;;5068610;28;19975;-82